ADDS METAR Data INFO
IDs: Format: Raw Decoded Include TAF

Data at: 1717 UTC 23 Oct 2017

KAEG 231649Z 35011G16KT 10SM SCT200 18/M03 A3044
KAEG 231550Z 36007KT 10SM FEW150 16/M03 A3044
KAEG 231447Z 01`007KT 10SM FEW150 14/M04 A3042
KAEG 231347Z 35007KT 10SM FEW150 11/M04 A3039
KAEG 231247Z 35006KT 10SM FEW150 07/M04 A3039
KAEG 231147Z 32006KT 10SM SKC 04/M06 A3040
KAEG 231135Z AUTO 35004KT 10SM CLR 07/M05 A3039 RMK AO2 T00731049
KAEG 230347Z 00000KT 10SM SKC 12/M05 A3038
KAEG 230247Z 00000KT 10SM SKC 11/M05 A3038
KAEG 230147Z 02005KT 10SM SKC 14/M04 A3038
KAEG 230047Z 32007KT 10SM SKC 16/M04 A3036
KAEG 222347Z 31017KT 10SM FEW180 19/M03 A3033
KAEG 222247Z 31020KT 10SM FEW180 20/M03 A3032
KAEG 222147Z 26006KT 10SM FEW180 19/M07 A3034
KAEG 222047Z VRB06KT 10SM FEW170 18/M07 A3036
KAEG 221947Z VRB06KT 10SM FEW170 16/M10 A3039
KAEG 221847Z VRB06KT 10SM FEW170 13/M10 A3042
KAEG 221747Z VRB04KT 10SM FEW170 13/M12 A3044
KAEG 221647Z 25004KT 10SM FEW170 12/M12 A3044
KAEG 221548Z 00000KT 10SM SKC 10/M13 A3044
KAEG 221447Z 23005KT 10SM SKC 08/M13 A3042
KAEG 221347Z 00000KT 10SM SKC 04/M14 A3039
KAEG 221247Z 32009KT 10SM SKC 04/M14 A3038
KAEG 221150Z 32009KT 10SM SKC 03/M14 A3038
KAEG 221115Z AUTO 34008KT 10SM CLR 05/M14 A3038 RMK AO2 T00531140